sensor_id;sensor_type;location;lat;lon;timestamp;P1;durP1;ratioP1;P2;durP2;ratioP2
44854;SDS011;30591;48.228;16.398;2022-11-15T00:03:56;117.87;;;36.57;;
44854;SDS011;30591;48.228;16.398;2022-11-15T00:06:47;109.33;;;35.43;;
44854;SDS011;30591;48.228;16.398;2022-11-15T00:09:33;121.00;;;36.53;;
44854;SDS011;30591;48.228;16.398;2022-11-15T00:12:19;143.90;;;40.90;;
44854;SDS011;30591;48.228;16.398;2022-11-15T00:15:06;137.73;;;39.73;;
44854;SDS011;30591;48.228;16.398;2022-11-15T00:18:12;155.63;;;41.07;;
44854;SDS011;30591;48.228;16.398;2022-11-15T00:21:03;169.73;;;42.33;;
44854;SDS011;30591;48.228;16.398;2022-11-15T00:27:09;160.67;;;41.63;;
44854;SDS011;30591;48.228;16.398;2022-11-15T00:29:55;168.47;;;41.03;;
44854;SDS011;30591;48.228;16.398;2022-11-15T00:32:43;164.57;;;41.10;;
44854;SDS011;30591;48.228;16.398;2022-11-15T00:38:36;153.23;;;39.00;;
44854;SDS011;30591;48.228;16.398;2022-11-15T00:49:12;149.93;;;38.67;;
44854;SDS011;30591;48.228;16.398;2022-11-15T00:56:16;157.20;;;38.63;;
44854;SDS011;30591;48.228;16.398;2022-11-15T01:03:28;185.17;;;41.33;;
44854;SDS011;30591;48.228;16.398;2022-11-15T01:10:25;188.70;;;41.70;;
44854;SDS011;30591;48.228;16.398;2022-11-15T01:13:11;206.03;;;45.20;;
44854;SDS011;30591;48.228;16.398;2022-11-15T01:16:13;153.73;;;39.23;;
44854;SDS011;30591;48.228;16.398;2022-11-15T01:19:03;207.60;;;45.77;;
44854;SDS011;30591;48.228;16.398;2022-11-15T01:21:50;236.23;;;45.70;;
44854;SDS011;30591;48.228;16.398;2022-11-15T01:24:38;295.63;;;48.40;;
44854;SDS011;30591;48.228;16.398;2022-11-15T01:27:28;313.67;;;52.33;;
44854;SDS011;30591;48.228;16.398;2022-11-15T01:30:14;336.53;;;52.60;;
44854;SDS011;30591;48.228;16.398;2022-11-15T01:33:05;358.00;;;54.27;;
44854;SDS011;30591;48.228;16.398;2022-11-15T01:35:56;325.63;;;51.50;;
44854;SDS011;30591;48.228;16.398;2022-11-15T01:41:49;227.43;;;47.23;;
44854;SDS011;30591;48.228;16.398;2022-11-15T01:47:53;228.83;;;45.77;;
44854;SDS011;30591;48.228;16.398;2022-11-15T02:00:30;244.23;;;46.90;;
44854;SDS011;30591;48.228;16.398;2022-11-15T02:06:39;311.50;;;50.07;;
44854;SDS011;30591;48.228;16.398;2022-11-15T02:12:36;283.70;;;49.93;;
44854;SDS011;30591;48.228;16.398;2022-11-15T02:15:38;332.63;;;52.23;;
44854;SDS011;30591;48.228;16.398;2022-11-15T02:18:38;233.53;;;45.97;;
44854;SDS011;30591;48.228;16.398;2022-11-15T02:25:03;287.43;;;50.00;;
44854;SDS011;30591;48.228;16.398;2022-11-15T02:41:33;403.73;;;57.90;;
44854;SDS011;30591;48.228;16.398;2022-11-15T02:44:37;258.87;;;47.03;;
44854;SDS011;30591;48.228;16.398;2022-11-15T02:47:37;171.90;;;41.17;;
44854;SDS011;30591;48.228;16.398;2022-11-15T02:50:35;316.23;;;52.27;;
44854;SDS011;30591;48.228;16.398;2022-11-15T02:53:27;215.17;;;44.77;;
44854;SDS011;30591;48.228;16.398;2022-11-15T02:56:14;238.27;;;49.00;;
44854;SDS011;30591;48.228;16.398;2022-11-15T02:59:24;354.00;;;55.73;;
44854;SDS011;30591;48.228;16.398;2022-11-15T03:05:25;174.40;;;41.13;;
44854;SDS011;30591;48.228;16.398;2022-11-15T03:11:46;135.03;;;37.13;;
44854;SDS011;30591;48.228;16.398;2022-11-15T03:14:47;152.37;;;40.50;;
44854;SDS011;30591;48.228;16.398;2022-11-15T03:21:00;182.17;;;41.20;;
44854;SDS011;30591;48.228;16.398;2022-11-15T03:27:09;213.57;;;42.67;;
44854;SDS011;30591;48.228;16.398;2022-11-15T03:30:00;223.13;;;43.40;;
44854;SDS011;30591;48.228;16.398;2022-11-15T03:32:51;213.23;;;45.07;;
44854;SDS011;30591;48.228;16.398;2022-11-15T03:35:58;191.30;;;40.13;;
44854;SDS011;30591;48.228;16.398;2022-11-15T03:38:51;188.53;;;40.63;;
44854;SDS011;30591;48.228;16.398;2022-11-15T03:42:26;219.07;;;42.00;;
44854;SDS011;30591;48.228;16.398;2022-11-15T03:48:05;235.47;;;42.27;;
44854;SDS011;30591;48.228;16.398;2022-11-15T03:51:10;215.87;;;39.87;;
44854;SDS011;30591;48.228;16.398;2022-11-15T03:54:08;191.73;;;39.30;;
44854;SDS011;30591;48.228;16.398;2022-11-15T03:56:58;248.80;;;41.43;;
44854;SDS011;30591;48.228;16.398;2022-11-15T04:02:56;216.63;;;40.73;;
44854;SDS011;30591;48.228;16.398;2022-11-15T04:09:04;230.50;;;41.63;;
44854;SDS011;30591;48.228;16.398;2022-11-15T04:15:19;198.87;;;36.37;;
44854;SDS011;30591;48.228;16.398;2022-11-15T04:18:25;200.63;;;37.30;;
44854;SDS011;30591;48.228;16.398;2022-11-15T04:21:12;144.70;;;38.30;;
44854;SDS011;30591;48.228;16.398;2022-11-15T04:24:31;216.53;;;47.77;;
44854;SDS011;30591;48.228;16.398;2022-11-15T04:27:17;280.30;;;52.17;;
44854;SDS011;30591;48.228;16.398;2022-11-15T04:30:15;181.03;;;43.50;;
44854;SDS011;30591;48.228;16.398;2022-11-15T04:33:02;192.63;;;37.93;;
44854;SDS011;30591;48.228;16.398;2022-11-15T04:35:51;209.27;;;40.10;;
44854;SDS011;30591;48.228;16.398;2022-11-15T04:38:58;216.57;;;41.37;;
44854;SDS011;30591;48.228;16.398;2022-11-15T04:41:50;171.00;;;38.67;;
44854;SDS011;30591;48.228;16.398;2022-11-15T04:44:36;256.60;;;42.60;;
44854;SDS011;30591;48.228;16.398;2022-11-15T04:47:30;249.47;;;41.87;;
44854;SDS011;30591;48.228;16.398;2022-11-15T04:50:16;189.43;;;38.30;;
44854;SDS011;30591;48.228;16.398;2022-11-15T04:53:12;176.33;;;38.27;;
44854;SDS011;30591;48.228;16.398;2022-11-15T04:55:59;227.23;;;40.07;;
44854;SDS011;30591;48.228;16.398;2022-11-15T04:58:50;229.17;;;41.97;;
44854;SDS011;30591;48.228;16.398;2022-11-15T05:01:41;155.53;;;35.67;;
44854;SDS011;30591;48.228;16.398;2022-11-15T05:04:29;203.30;;;42.63;;
44854;SDS011;30591;48.228;16.398;2022-11-15T05:07:14;256.37;;;50.03;;
44854;SDS011;30591;48.228;16.398;2022-11-15T05:10:07;249.93;;;55.20;;
44854;SDS011;30591;48.228;16.398;2022-11-15T05:16:20;313.27;;;49.87;;
44854;SDS011;30591;48.228;16.398;2022-11-15T05:19:06;258.03;;;83.63;;
44854;SDS011;30591;48.228;16.398;2022-11-15T05:21:52;304.90;;;70.37;;
44854;SDS011;30591;48.228;16.398;2022-11-15T05:24:42;183.63;;;57.40;;
44854;SDS011;30591;48.228;16.398;2022-11-15T05:27:28;201.50;;;39.87;;
44854;SDS011;30591;48.228;16.398;2022-11-15T05:30:16;297.87;;;51.80;;
44854;SDS011;30591;48.228;16.398;2022-11-15T05:39:40;241.30;;;49.60;;
44854;SDS011;30591;48.228;16.398;2022-11-15T05:42:28;190.60;;;42.13;;
44854;SDS011;30591;48.228;16.398;2022-11-15T05:45:21;177.20;;;40.10;;
44854;SDS011;30591;48.228;16.398;2022-11-15T05:48:13;219.03;;;46.20;;
44854;SDS011;30591;48.228;16.398;2022-11-15T05:51:00;263.60;;;49.73;;
44854;SDS011;30591;48.228;16.398;2022-11-15T05:53:48;285.17;;;48.30;;
44854;SDS011;30591;48.228;16.398;2022-11-15T05:56:54;235.63;;;46.53;;
44854;SDS011;30591;48.228;16.398;2022-11-15T05:59:40;267.37;;;49.30;;
44854;SDS011;30591;48.228;16.398;2022-11-15T06:05:36;277.10;;;52.23;;
44854;SDS011;30591;48.228;16.398;2022-11-15T06:08:31;206.53;;;49.63;;
44854;SDS011;30591;48.228;16.398;2022-11-15T06:11:17;213.33;;;43.43;;
44854;SDS011;30591;48.228;16.398;2022-11-15T06:14:08;182.50;;;46.33;;
44854;SDS011;30591;48.228;16.398;2022-11-15T06:16:55;177.50;;;47.63;;
44854;SDS011;30591;48.228;16.398;2022-11-15T06:19:53;249.63;;;49.23;;
44854;SDS011;30591;48.228;16.398;2022-11-15T06:22:42;211.20;;;48.67;;
44854;SDS011;30591;48.228;16.398;2022-11-15T06:25:32;205.10;;;48.10;;
44854;SDS011;30591;48.228;16.398;2022-11-15T06:28:20;207.77;;;47.27;;
44854;SDS011;30591;48.228;16.398;2022-11-15T06:31:08;125.03;;;40.30;;
44854;SDS011;30591;48.228;16.398;2022-11-15T06:33:56;207.53;;;59.57;;
44854;SDS011;30591;48.228;16.398;2022-11-15T06:36:42;164.53;;;40.40;;
44854;SDS011;30591;48.228;16.398;2022-11-15T06:39:28;165.60;;;38.50;;
44854;SDS011;30591;48.228;16.398;2022-11-15T06:42:16;211.23;;;44.90;;
44854;SDS011;30591;48.228;16.398;2022-11-15T06:45:07;155.40;;;40.07;;
44854;SDS011;30591;48.228;16.398;2022-11-15T06:47:53;172.87;;;41.83;;
44854;SDS011;30591;48.228;16.398;2022-11-15T06:50:40;132.40;;;36.60;;
44854;SDS011;30591;48.228;16.398;2022-11-15T06:53:37;139.43;;;37.97;;
44854;SDS011;30591;48.228;16.398;2022-11-15T06:56:23;138.57;;;37.53;;
44854;SDS011;30591;48.228;16.398;2022-11-15T06:59:10;134.53;;;35.17;;
44854;SDS011;30591;48.228;16.398;2022-11-15T07:01:58;134.20;;;35.03;;
44854;SDS011;30591;48.228;16.398;2022-11-15T07:04:50;135.27;;;36.97;;
44854;SDS011;30591;48.228;16.398;2022-11-15T07:07:37;156.77;;;37.80;;
44854;SDS011;30591;48.228;16.398;2022-11-15T07:10:26;160.67;;;36.93;;
44854;SDS011;30591;48.228;16.398;2022-11-15T07:13:14;157.07;;;38.33;;
44854;SDS011;30591;48.228;16.398;2022-11-15T07:16:15;129.87;;;35.50;;
44854;SDS011;30591;48.228;16.398;2022-11-15T07:25:36;165.00;;;44.13;;
44854;SDS011;30591;48.228;16.398;2022-11-15T07:31:49;143.90;;;36.13;;
44854;SDS011;30591;48.228;16.398;2022-11-15T07:34:39;130.00;;;34.87;;
44854;SDS011;30591;48.228;16.398;2022-11-15T07:37:32;159.13;;;38.23;;
44854;SDS011;30591;48.228;16.398;2022-11-15T07:43:33;145.53;;;37.30;;
44854;SDS011;30591;48.228;16.398;2022-11-15T07:46:20;128.37;;;43.00;;
44854;SDS011;30591;48.228;16.398;2022-11-15T07:52:16;193.67;;;48.27;;
44854;SDS011;30591;48.228;16.398;2022-11-15T07:55:02;214.63;;;78.93;;
44854;SDS011;30591;48.228;16.398;2022-11-15T07:57:49;161.00;;;47.37;;
44854;SDS011;30591;48.228;16.398;2022-11-15T08:00:39;173.13;;;42.50;;
44854;SDS011;30591;48.228;16.398;2022-11-15T08:03:25;182.37;;;43.20;;
44854;SDS011;30591;48.228;16.398;2022-11-15T08:06:19;123.67;;;38.07;;
44854;SDS011;30591;48.228;16.398;2022-11-15T08:09:05;128.77;;;40.43;;
44854;SDS011;30591;48.228;16.398;2022-11-15T08:11:51;118.37;;;35.83;;
44854;SDS011;30591;48.228;16.398;2022-11-15T08:14:37;114.93;;;36.47;;
44854;SDS011;30591;48.228;16.398;2022-11-15T08:17:30;99.93;;;36.20;;
44854;SDS011;30591;48.228;16.398;2022-11-15T08:20:18;108.50;;;35.03;;
44854;SDS011;30591;48.228;16.398;2022-11-15T08:23:06;120.30;;;40.63;;
44854;SDS011;30591;48.228;16.398;2022-11-15T08:25:52;98.03;;;36.87;;
44854;SDS011;30591;48.228;16.398;2022-11-15T08:28:59;101.87;;;36.37;;
44854;SDS011;30591;48.228;16.398;2022-11-15T08:31:46;96.37;;;34.53;;
44854;SDS011;30591;48.228;16.398;2022-11-15T08:34:32;91.20;;;33.47;;
44854;SDS011;30591;48.228;16.398;2022-11-15T08:37:19;83.90;;;32.47;;
44854;SDS011;30591;48.228;16.398;2022-11-15T08:40:08;80.90;;;31.00;;
44854;SDS011;30591;48.228;16.398;2022-11-15T08:42:56;81.60;;;35.10;;
44854;SDS011;30591;48.228;16.398;2022-11-15T08:45:48;61.27;;;29.07;;
44854;SDS011;30591;48.228;16.398;2022-11-15T08:48:35;70.20;;;29.43;;
44854;SDS011;30591;48.228;16.398;2022-11-15T08:51:22;75.53;;;30.30;;
44854;SDS011;30591;48.228;16.398;2022-11-15T08:54:08;78.93;;;32.27;;
44854;SDS011;30591;48.228;16.398;2022-11-15T08:57:07;91.57;;;32.97;;
44854;SDS011;30591;48.228;16.398;2022-11-15T08:59:55;85.93;;;33.97;;
44854;SDS011;30591;48.228;16.398;2022-11-15T09:05:53;87.90;;;33.57;;
44854;SDS011;30591;48.228;16.398;2022-11-15T09:18:44;91.83;;;36.97;;
44854;SDS011;30591;48.228;16.398;2022-11-15T09:24:57;81.77;;;34.53;;
44854;SDS011;30591;48.228;16.398;2022-11-15T09:27:57;78.03;;;34.67;;
44854;SDS011;30591;48.228;16.398;2022-11-15T09:30:43;77.60;;;34.10;;
44854;SDS011;30591;48.228;16.398;2022-11-15T09:36:41;77.47;;;33.80;;
44854;SDS011;30591;48.228;16.398;2022-11-15T09:39:29;112.83;;;45.53;;
44854;SDS011;30591;48.228;16.398;2022-11-15T09:51:30;82.07;;;34.53;;
44854;SDS011;30591;48.228;16.398;2022-11-15T10:00:50;84.40;;;38.07;;
44854;SDS011;30591;48.228;16.398;2022-11-15T10:03:37;82.03;;;40.03;;
44854;SDS011;30591;48.228;16.398;2022-11-15T10:06:09;77.53;;;37.47;;
44854;SDS011;30591;48.228;16.398;2022-11-15T10:08:51;83.23;;;38.80;;
44854;SDS011;30591;48.228;16.398;2022-11-15T10:11:35;74.90;;;38.13;;
44854;SDS011;30591;48.228;16.398;2022-11-15T10:14:16;75.00;;;37.37;;
44854;SDS011;30591;48.228;16.398;2022-11-15T10:17:07;77.83;;;38.07;;
44854;SDS011;30591;48.228;16.398;2022-11-15T10:25:25;71.40;;;35.33;;
44854;SDS011;30591;48.228;16.398;2022-11-15T10:27:58;65.43;;;35.63;;
44854;SDS011;30591;48.228;16.398;2022-11-15T10:30:30;67.27;;;33.80;;
44854;SDS011;30591;48.228;16.398;2022-11-15T10:44:17;63.23;;;31.57;;
44854;SDS011;30591;48.228;16.398;2022-11-15T10:47:06;62.53;;;32.67;;
44854;SDS011;30591;48.228;16.398;2022-11-15T10:49:57;64.60;;;29.27;;
44854;SDS011;30591;48.228;16.398;2022-11-15T10:52:44;63.20;;;31.13;;
44854;SDS011;30591;48.228;16.398;2022-11-15T11:02:32;63.40;;;30.17;;
44854;SDS011;30591;48.228;16.398;2022-11-15T11:11:16;66.60;;;29.90;;
44854;SDS011;30591;48.228;16.398;2022-11-15T11:14:00;67.63;;;30.67;;
44854;SDS011;30591;48.228;16.398;2022-11-15T11:20:20;73.80;;;33.93;;
44854;SDS011;30591;48.228;16.398;2022-11-15T11:28:55;70.60;;;32.13;;
44854;SDS011;30591;48.228;16.398;2022-11-15T11:37:17;72.77;;;33.10;;
44854;SDS011;30591;48.228;16.398;2022-11-15T11:48:40;83.10;;;38.73;;
44854;SDS011;30591;48.228;16.398;2022-11-15T12:00:25;71.87;;;32.10;;
44854;SDS011;30591;48.228;16.398;2022-11-15T12:05:56;119.13;;;61.80;;
44854;SDS011;30591;48.228;16.398;2022-11-15T12:11:20;87.77;;;40.60;;
44854;SDS011;30591;48.228;16.398;2022-11-15T12:14:23;76.67;;;35.20;;
44854;SDS011;30591;48.228;16.398;2022-11-15T12:16:51;90.83;;;42.60;;
44854;SDS011;30591;48.228;16.398;2022-11-15T12:19:19;84.40;;;34.83;;
44854;SDS011;30591;48.228;16.398;2022-11-15T12:22:00;84.67;;;36.67;;
44854;SDS011;30591;48.228;16.398;2022-11-15T12:24:40;80.63;;;35.57;;
44854;SDS011;30591;48.228;16.398;2022-11-15T12:27:56;83.53;;;36.13;;
44854;SDS011;30591;48.228;16.398;2022-11-15T12:30:13;91.03;;;38.80;;
44854;SDS011;30591;48.228;16.398;2022-11-15T12:33:27;92.83;;;37.90;;
44854;SDS011;30591;48.228;16.398;2022-11-15T12:36:00;86.63;;;36.37;;
44854;SDS011;30591;48.228;16.398;2022-11-15T12:38:56;87.03;;;37.93;;
44854;SDS011;30591;48.228;16.398;2022-11-15T12:41:31;94.40;;;41.83;;
44854;SDS011;30591;48.228;16.398;2022-11-15T12:47:02;123.00;;;58.93;;
44854;SDS011;30591;48.228;16.398;2022-11-15T12:49:53;106.20;;;54.00;;
44854;SDS011;30591;48.228;16.398;2022-11-15T12:52:21;108.60;;;48.70;;
44854;SDS011;30591;48.228;16.398;2022-11-15T12:54:51;96.10;;;42.03;;
44854;SDS011;30591;48.228;16.398;2022-11-15T13:02:44;92.03;;;41.37;;
44854;SDS011;30591;48.228;16.398;2022-11-15T13:12:58;90.60;;;42.90;;
44854;SDS011;30591;48.228;16.398;2022-11-15T13:15:35;91.23;;;44.30;;
44854;SDS011;30591;48.228;16.398;2022-11-15T13:18:24;98.60;;;48.70;;
44854;SDS011;30591;48.228;16.398;2022-11-15T13:21:00;100.47;;;46.47;;
44854;SDS011;30591;48.228;16.398;2022-11-15T13:23:51;94.20;;;43.93;;
44854;SDS011;30591;48.228;16.398;2022-11-15T13:26:31;128.13;;;67.70;;
44854;SDS011;30591;48.228;16.398;2022-11-15T13:28:59;117.20;;;62.00;;
44854;SDS011;30591;48.228;16.398;2022-11-15T13:31:30;99.10;;;49.73;;
44854;SDS011;30591;48.228;16.398;2022-11-15T13:37:27;85.53;;;39.60;;
44854;SDS011;30591;48.228;16.398;2022-11-15T13:40:16;90.47;;;41.23;;
44854;SDS011;30591;48.228;16.398;2022-11-15T13:42:50;86.30;;;36.70;;
44854;SDS011;30591;48.228;16.398;2022-11-15T13:45:19;87.67;;;38.47;;
44854;SDS011;30591;48.228;16.398;2022-11-15T13:47:50;87.90;;;37.53;;
44854;SDS011;30591;48.228;16.398;2022-11-15T13:50:20;89.10;;;40.47;;
44854;SDS011;30591;48.228;16.398;2022-11-15T13:52:52;91.10;;;42.00;;
44854;SDS011;30591;48.228;16.398;2022-11-15T13:55:25;86.07;;;41.03;;
44854;SDS011;30591;48.228;16.398;2022-11-15T13:57:56;85.27;;;39.63;;
44854;SDS011;30591;48.228;16.398;2022-11-15T14:05:43;92.23;;;40.30;;
44854;SDS011;30591;48.228;16.398;2022-11-15T14:08:23;88.37;;;40.23;;
44854;SDS011;30591;48.228;16.398;2022-11-15T14:11:13;91.37;;;40.93;;
44854;SDS011;30591;48.228;16.398;2022-11-15T14:16:38;96.60;;;42.10;;
44854;SDS011;30591;48.228;16.398;2022-11-15T14:22:17;100.37;;;41.90;;
44854;SDS011;30591;48.228;16.398;2022-11-15T14:28:14;97.80;;;43.27;;
44854;SDS011;30591;48.228;16.398;2022-11-15T14:30:56;99.63;;;43.37;;
44854;SDS011;30591;48.228;16.398;2022-11-15T14:33:32;95.60;;;43.67;;
44854;SDS011;30591;48.228;16.398;2022-11-15T14:36:11;94.03;;;42.33;;
44854;SDS011;30591;48.228;16.398;2022-11-15T14:38:40;99.77;;;44.60;;
44854;SDS011;30591;48.228;16.398;2022-11-15T14:41:22;102.50;;;47.67;;
44854;SDS011;30591;48.228;16.398;2022-11-15T14:43:52;100.83;;;44.87;;
44854;SDS011;30591;48.228;16.398;2022-11-15T14:46:22;145.87;;;84.10;;
44854;SDS011;30591;48.228;16.398;2022-11-15T14:48:50;130.07;;;65.13;;
44854;SDS011;30591;48.228;16.398;2022-11-15T14:51:19;122.60;;;62.30;;
44854;SDS011;30591;48.228;16.398;2022-11-15T14:53:47;105.13;;;51.20;;
44854;SDS011;30591;48.228;16.398;2022-11-15T14:56:15;100.70;;;47.47;;
44854;SDS011;30591;48.228;16.398;2022-11-15T14:58:43;102.17;;;49.30;;
44854;SDS011;30591;48.228;16.398;2022-11-15T15:01:20;104.67;;;49.10;;
44854;SDS011;30591;48.228;16.398;2022-11-15T15:03:51;96.63;;;43.23;;
44854;SDS011;30591;48.228;16.398;2022-11-15T15:06:23;91.90;;;43.73;;
44854;SDS011;30591;48.228;16.398;2022-11-15T15:08:56;96.07;;;44.20;;
44854;SDS011;30591;48.228;16.398;2022-11-15T15:11:25;100.30;;;42.73;;
44854;SDS011;30591;48.228;16.398;2022-11-15T15:13:58;94.23;;;44.53;;
44854;SDS011;30591;48.228;16.398;2022-11-15T15:16:30;94.93;;;40.97;;
44854;SDS011;30591;48.228;16.398;2022-11-15T15:19:01;97.80;;;42.30;;
44854;SDS011;30591;48.228;16.398;2022-11-15T15:21:28;98.73;;;42.90;;
44854;SDS011;30591;48.228;16.398;2022-11-15T15:24:03;95.80;;;45.37;;
44854;SDS011;30591;48.228;16.398;2022-11-15T15:26:32;97.50;;;45.87;;
44854;SDS011;30591;48.228;16.398;2022-11-15T15:29:06;103.50;;;46.47;;
44854;SDS011;30591;48.228;16.398;2022-11-15T15:31:36;109.37;;;50.17;;
44854;SDS011;30591;48.228;16.398;2022-11-15T15:34:03;106.17;;;47.30;;
44854;SDS011;30591;48.228;16.398;2022-11-15T15:36:31;99.17;;;45.30;;
44854;SDS011;30591;48.228;16.398;2022-11-15T15:39:00;104.27;;;48.97;;
44854;SDS011;30591;48.228;16.398;2022-11-15T15:41:27;102.63;;;46.63;;
44854;SDS011;30591;48.228;16.398;2022-11-15T15:43:55;111.83;;;49.43;;
44854;SDS011;30591;48.228;16.398;2022-11-15T15:46:28;105.93;;;47.47;;
44854;SDS011;30591;48.228;16.398;2022-11-15T15:48:56;108.80;;;48.03;;
44854;SDS011;30591;48.228;16.398;2022-11-15T15:51:23;106.47;;;49.03;;
44854;SDS011;30591;48.228;16.398;2022-11-15T15:53:54;112.20;;;50.07;;
44854;SDS011;30591;48.228;16.398;2022-11-15T15:56:24;100.60;;;48.70;;
44854;SDS011;30591;48.228;16.398;2022-11-15T15:58:53;109.50;;;51.50;;
44854;SDS011;30591;48.228;16.398;2022-11-15T16:01:28;114.93;;;52.87;;
44854;SDS011;30591;48.228;16.398;2022-11-15T16:03:55;109.40;;;49.07;;
44854;SDS011;30591;48.228;16.398;2022-11-15T16:06:57;108.97;;;50.97;;
44854;SDS011;30591;48.228;16.398;2022-11-15T16:09:21;109.50;;;45.67;;
44854;SDS011;30591;48.228;16.398;2022-11-15T16:12:13;107.60;;;48.37;;
44854;SDS011;30591;48.228;16.398;2022-11-15T16:14:42;107.63;;;49.03;;
44854;SDS011;30591;48.228;16.398;2022-11-15T16:17:20;110.13;;;49.97;;
44854;SDS011;30591;48.228;16.398;2022-11-15T16:19:49;104.83;;;49.93;;
44854;SDS011;30591;48.228;16.398;2022-11-15T16:22:16;103.47;;;48.23;;
44854;SDS011;30591;48.228;16.398;2022-11-15T16:24:44;102.20;;;45.10;;
44854;SDS011;30591;48.228;16.398;2022-11-15T16:27:17;100.87;;;48.53;;
44854;SDS011;30591;48.228;16.398;2022-11-15T16:29:49;113.70;;;51.53;;
44854;SDS011;30591;48.228;16.398;2022-11-15T16:32:16;104.57;;;49.80;;
44854;SDS011;30591;48.228;16.398;2022-11-15T16:34:50;108.57;;;48.97;;
44854;SDS011;30591;48.228;16.398;2022-11-15T16:37:23;107.50;;;46.20;;
44854;SDS011;30591;48.228;16.398;2022-11-15T16:39:51;113.93;;;47.43;;
44854;SDS011;30591;48.228;16.398;2022-11-15T16:42:27;117.20;;;50.73;;
44854;SDS011;30591;48.228;16.398;2022-11-15T16:44:54;112.40;;;47.90;;
44854;SDS011;30591;48.228;16.398;2022-11-15T16:47:34;118.10;;;49.83;;
44854;SDS011;30591;48.228;16.398;2022-11-15T16:50:02;116.90;;;48.47;;
44854;SDS011;30591;48.228;16.398;2022-11-15T16:55:29;124.13;;;49.33;;
44854;SDS011;30591;48.228;16.398;2022-11-15T16:58:07;125.57;;;51.57;;
44854;SDS011;30591;48.228;16.398;2022-11-15T17:03:28;116.37;;;48.20;;
44854;SDS011;30591;48.228;16.398;2022-11-15T17:05:58;128.33;;;51.53;;
44854;SDS011;30591;48.228;16.398;2022-11-15T17:08:26;119.70;;;49.70;;
44854;SDS011;30591;48.228;16.398;2022-11-15T17:10:54;132.17;;;51.07;;
44854;SDS011;30591;48.228;16.398;2022-11-15T17:13:21;129.37;;;52.50;;
44854;SDS011;30591;48.228;16.398;2022-11-15T17:15:48;124.43;;;49.87;;
44854;SDS011;30591;48.228;16.398;2022-11-15T17:18:15;127.97;;;51.50;;
44854;SDS011;30591;48.228;16.398;2022-11-15T17:20:43;123.30;;;51.30;;
44854;SDS011;30591;48.228;16.398;2022-11-15T17:23:15;131.47;;;50.50;;
44854;SDS011;30591;48.228;16.398;2022-11-15T17:25:43;130.10;;;49.93;;
44854;SDS011;30591;48.228;16.398;2022-11-15T17:28:10;113.83;;;46.23;;
44854;SDS011;30591;48.228;16.398;2022-11-15T17:30:40;109.43;;;47.13;;
44854;SDS011;30591;48.228;16.398;2022-11-15T17:33:10;105.73;;;46.20;;
44854;SDS011;30591;48.228;16.398;2022-11-15T17:38:41;103.43;;;45.37;;
44854;SDS011;30591;48.228;16.398;2022-11-15T17:44:15;94.60;;;42.77;;
44854;SDS011;30591;48.228;16.398;2022-11-15T17:46:57;101.47;;;45.00;;
44854;SDS011;30591;48.228;16.398;2022-11-15T17:49:25;90.53;;;42.37;;
44854;SDS011;30591;48.228;16.398;2022-11-15T17:51:52;91.50;;;42.43;;
44854;SDS011;30591;48.228;16.398;2022-11-15T17:54:20;79.70;;;39.73;;
44854;SDS011;30591;48.228;16.398;2022-11-15T17:56:58;75.17;;;35.33;;
44854;SDS011;30591;48.228;16.398;2022-11-15T18:00:45;72.03;;;35.23;;
44854;SDS011;30591;48.228;16.398;2022-11-15T18:03:15;68.83;;;34.47;;
44854;SDS011;30591;48.228;16.398;2022-11-15T18:05:45;71.07;;;35.47;;
44854;SDS011;30591;48.228;16.398;2022-11-15T18:08:19;68.33;;;35.57;;
44854;SDS011;30591;48.228;16.398;2022-11-15T18:11:00;62.43;;;33.60;;
44854;SDS011;30591;48.228;16.398;2022-11-15T18:13:31;65.97;;;33.23;;
44854;SDS011;30591;48.228;16.398;2022-11-15T18:15:59;74.70;;;34.87;;
44854;SDS011;30591;48.228;16.398;2022-11-15T18:18:30;71.03;;;33.67;;
44854;SDS011;30591;48.228;16.398;2022-11-15T18:23:51;70.60;;;34.67;;
44854;SDS011;30591;48.228;16.398;2022-11-15T18:26:21;70.90;;;34.87;;
44854;SDS011;30591;48.228;16.398;2022-11-15T18:28:55;70.97;;;35.07;;
44854;SDS011;30591;48.228;16.398;2022-11-15T18:31:35;68.60;;;34.23;;
44854;SDS011;30591;48.228;16.398;2022-11-15T18:34:03;67.90;;;34.27;;
44854;SDS011;30591;48.228;16.398;2022-11-15T18:36:38;65.97;;;33.87;;
44854;SDS011;30591;48.228;16.398;2022-11-15T18:39:08;64.63;;;33.53;;
44854;SDS011;30591;48.228;16.398;2022-11-15T18:44:43;70.73;;;34.00;;
44854;SDS011;30591;48.228;16.398;2022-11-15T18:47:22;69.50;;;33.87;;
44854;SDS011;30591;48.228;16.398;2022-11-15T18:49:51;64.17;;;32.63;;
44854;SDS011;30591;48.228;16.398;2022-11-15T18:52:19;65.90;;;32.53;;
44854;SDS011;30591;48.228;16.398;2022-11-15T18:54:49;65.83;;;31.73;;
44854;SDS011;30591;48.228;16.398;2022-11-15T18:57:29;64.87;;;32.17;;
44854;SDS011;30591;48.228;16.398;2022-11-15T18:59:56;71.30;;;32.37;;
44854;SDS011;30591;48.228;16.398;2022-11-15T19:02:36;70.47;;;32.20;;
44854;SDS011;30591;48.228;16.398;2022-11-15T19:05:04;71.03;;;31.97;;
44854;SDS011;30591;48.228;16.398;2022-11-15T19:07:32;63.63;;;29.73;;
44854;SDS011;30591;48.228;16.398;2022-11-15T19:10:03;68.70;;;32.07;;
44854;SDS011;30591;48.228;16.398;2022-11-15T19:12:34;67.47;;;30.97;;
44854;SDS011;30591;48.228;16.398;2022-11-15T19:15:06;64.97;;;31.10;;
44854;SDS011;30591;48.228;16.398;2022-11-15T19:17:36;64.20;;;31.37;;
44854;SDS011;30591;48.228;16.398;2022-11-15T19:23:10;69.30;;;31.93;;
44854;SDS011;30591;48.228;16.398;2022-11-15T19:25:37;62.17;;;30.63;;
44854;SDS011;30591;48.228;16.398;2022-11-15T19:28:07;66.40;;;31.80;;
44854;SDS011;30591;48.228;16.398;2022-11-15T19:33:35;59.60;;;29.77;;
44854;SDS011;30591;48.228;16.398;2022-11-15T19:36:04;61.03;;;30.07;;
44854;SDS011;30591;48.228;16.398;2022-11-15T19:38:40;60.03;;;30.83;;
44854;SDS011;30591;48.228;16.398;2022-11-15T19:41:12;59.03;;;28.87;;
44854;SDS011;30591;48.228;16.398;2022-11-15T19:43:46;53.83;;;27.80;;
44854;SDS011;30591;48.228;16.398;2022-11-15T19:46:18;51.83;;;27.27;;
44854;SDS011;30591;48.228;16.398;2022-11-15T19:48:53;52.67;;;27.43;;
44854;SDS011;30591;48.228;16.398;2022-11-15T19:51:22;52.60;;;27.23;;
44854;SDS011;30591;48.228;16.398;2022-11-15T19:54:06;55.70;;;28.83;;
44854;SDS011;30591;48.228;16.398;2022-11-15T19:56:35;51.67;;;27.00;;
44854;SDS011;30591;48.228;16.398;2022-11-15T19:59:21;53.50;;;28.17;;
44854;SDS011;30591;48.228;16.398;2022-11-15T20:01:49;52.67;;;25.90;;
44854;SDS011;30591;48.228;16.398;2022-11-15T20:04:16;52.87;;;28.13;;
44854;SDS011;30591;48.228;16.398;2022-11-15T20:06:45;49.87;;;26.53;;
44854;SDS011;30591;48.228;16.398;2022-11-15T20:12:19;53.73;;;31.03;;
44854;SDS011;30591;48.228;16.398;2022-11-15T20:14:49;51.67;;;29.07;;